Latest Weather Observations for Port Lincoln Airport

IDS60801

Issued at 9:35 pm CST Monday 21 April 2014 (issued every 30 minutes, with the page automatically refreshed every 10 minutes)

About weather observations | Map of weather stations | Latest weather observations for SA | Other Formats
Station Details ID: 018192 Name: PORT LINCOLN AWS Lat: -34.60 Lon: 135.88 Height: 8.5 m
Data from the previous 72 hours. | See also: Recent months at Port Lincoln Airport
Date/Time
CST
Temp
°C
App
Temp
°C
Dew
Point
Rel
Hum
%
Delta-T
°C
Wind Press
QNH
hPa
Press
MSL
hPa
Rain
since 9 am
mm
Dir
 
Spd
km/h
Gust
km/h
Spd
kts
Gust
kts
21/09:30pm 18.2 16.8 15.6 85 1.5 S 17 24 9 13 1013.2 - 0.0
21/09:23pm 18.1 16.7 15.5 85 1.5 S 17 24 9 13 1012.4 - 0.0
21/09:06pm 18.1 16.1 15.4 84 1.6 SSW 20 28 11 15 1012.2 - 0.0
21/09:00pm 18.0 17.3 15.3 84 1.6 S 13 22 7 12 1012.3 1012.3 0.0
21/08:30pm 18.2 18.0 15.6 85 1.5 S 11 17 6 9 1011.7 - 0.0
21/08:00pm 18.4 16.6 15.6 84 1.6 S 19 26 10 14 1011.3 - 0.0
21/07:39pm 19.0 17.2 15.9 82 1.8 SSW 20 28 11 15 1012.2 - 0.0
21/07:30pm 19.2 17.1 16.1 82 1.8 SSW 22 30 12 16 1011.9 - 0.0
21/07:21pm 19.4 17.6 15.9 80 2.1 S 20 28 11 15 1011.3 - 0.0
21/07:00pm 19.5 17.3 13.4 68 3.5 WSW 17 20 9 11 1011.0 - 0.0
21/06:30pm 19.6 18.6 11.1 58 4.6 SW 7 13 4 7 1010.3 - 0.0
21/06:00pm 20.4 20.7 10.8 54 5.2 CALM 0 11 0 6 1009.9 1009.9 0.0
21/05:30pm 22.0 17.5 10.2 47 6.4 W 24 35 13 19 1009.5 - 0.0
21/05:00pm 23.5 17.4 6.7 34 8.7 W 28 37 15 20 1009.2 - 0.0
21/04:30pm 24.7 17.7 6.9 32 9.3 NW 33 41 18 22 1009.2 - 0.0
21/04:00pm 25.5 16.4 5.7 28 10.1 NW 43 56 23 30 1008.9 - 0.0
21/03:30pm 26.1 18.1 5.7 27 10.5 NW 37 48 20 26 1008.8 - 0.0
21/03:00pm 27.3 18.1 5.6 25 11.2 WNW 43 56 23 30 1008.8 1008.8 0.0
21/02:47pm 26.7 17.9 5.6 26 10.9 WNW 41 59 22 32 1008.8 - 0.0
21/02:30pm 27.3 18.1 5.6 25 11.2 WNW 43 54 23 29 1009.0 - 0.0
21/02:00pm 29.3 19.0 4.7 21 12.7 WNW 48 65 26 35 1009.0 - 0.0
21/01:31pm 28.2 17.2 5.1 23 11.9 WNW 52 70 28 38 1009.3 - 0.0
21/01:30pm 28.1 16.7 5.0 23 11.9 WNW 54 70 29 38 1009.2 - 0.0
21/01:22pm 28.6 17.7 5.5 23 12.0 WNW 52 70 28 38 1009.3 - 0.0
21/01:00pm 29.3 19.1 5.4 22 12.5 NW 48 65 26 35 1009.3 - 0.0
21/12:35pm 30.4 20.3 5.6 21 13.1 NW 48 67 26 36 1009.4 - 0.0
21/12:30pm 30.0 19.4 5.3 21 12.9 NW 50 65 27 35 1009.4 - 0.0
21/12:10pm 30.5 19.1 5.0 20 13.3 NW 54 72 29 39 1009.6 - 0.0
21/12:00pm 31.0 19.2 4.7 19 13.7 NW 56 76 30 41 1009.7 1009.7 0.0
21/11:57am 30.6 18.5 4.4 19 13.5 NW 57 76 31 41 1009.8 - 0.0
21/11:44am 30.9 21.0 4.6 19 13.7 NW 46 69 25 37 1009.9 - 0.0
21/11:30am 30.5 21.2 5.0 20 13.3 NW 43 56 23 30 1010.3 - 0.0
21/11:00am 29.4 19.6 5.5 22 12.5 NW 46 61 25 33 1010.7 - 0.0
21/10:30am 28.6 19.5 6.1 24 11.8 NNW 43 57 23 31 1010.5 - 0.0
21/10:00am 27.4 19.1 6.2 26 11.1 NNW 39 54 21 29 1010.6 - 0.0
21/09:33am 26.0 18.3 7.1 30 10.0 NNW 37 56 20 30 1010.7 - 0.0
21/09:30am 25.7 17.2 6.8 30 9.9 NNW 41 56 22 30 1010.6 - 0.0
21/09:00am 25.1 16.1 7.3 32 9.4 NNW 44 65 24 35 1010.6 1010.6 0.0
21/08:55am 25.0 16.0 7.2 32 9.4 NNW 44 65 24 35 1010.6 - 0.0
21/08:30am 23.4 15.0 7.5 36 8.3 NNW 41 54 22 29 1010.4 - 0.0
21/08:00am 23.0 14.5 7.1 36 8.2 NNW 41 63 22 34 1010.2 - 0.0
21/07:47am 23.2 14.8 7.3 36 8.3 NNW 41 59 22 32 1010.2 - 0.0
21/07:30am 23.1 14.3 7.2 36 8.2 NNW 43 59 23 32 1010.1 - 0.0
21/07:01am 23.0 15.3 7.1 36 8.2 NNW 37 56 20 30 1010.1 - 0.0
21/07:00am 22.8 15.2 7.4 37 8.0 NNW 37 54 20 29 1010.1 - 0.0
21/06:38am 22.6 14.6 7.6 38 7.8 NNW 39 57 21 31 1009.9 - 0.0
21/06:30am 22.6 14.6 7.6 38 7.8 NNW 39 54 21 29 1009.8 - 0.0
21/06:00am 22.7 14.8 7.7 38 7.8 NNW 39 54 21 29 1010.0 1010.0 0.0
21/05:30am 22.9 15.3 7.4 37 8.1 NNW 37 50 20 27 1010.0 - 0.0
21/05:23am 22.6 15.0 7.6 38 7.8 NNW 37 56 20 30 1010.1 - 0.0
21/05:00am 22.3 15.2 8.1 40 7.5 NNW 35 46 19 25 1009.9 - 0.0
21/04:30am 22.9 14.6 7.8 38 7.9 NNW 41 54 22 29 1009.8 - 0.0
21/04:00am 22.7 14.9 8.4 40 7.6 N 39 59 21 32 1009.6 - 0.0
21/03:42am 22.7 15.0 8.8 41 7.4 N 39 57 21 31 1009.5 - 0.0
21/03:30am 22.9 14.4 8.6 40 7.6 N 43 59 23 32 1009.7 - 0.0
21/03:19am 22.8 15.2 8.9 41 7.4 N 39 57 21 31 1009.9 - 0.0
21/03:10am 22.5 16.0 9.0 42 7.2 N 33 50 18 27 1009.9 - 0.0
21/03:00am 19.2 17.6 10.2 56 4.8 NNE 9 30 5 16 1010.6 1010.6 0.0
21/02:30am 17.5 16.2 10.1 62 3.9 NNE 7 17 4 9 1011.6 - 0.0
21/02:00am 16.4 15.1 11.3 72 2.7 NE 9 13 5 7 1012.1 - 0.0
21/01:30am 16.6 15.8 11.7 73 2.7 NNE 7 15 4 8 1012.5 - 0.0
21/01:00am 16.6 16.2 12.9 79 2.1 NNE 7 13 4 7 1012.9 - 0.0
21/12:30am 16.6 16.6 13.7 83 1.6 NNE 6 11 3 6 1013.1 - 0.0
21/12:00am 16.7 15.9 14.0 84 1.5 NNE 11 15 6 8 1013.6 1013.6 0.0
 
Date/Time
CST
Temp
°C
App
Temp
°C
Dew
Point
Rel
Hum
%
Delta-T
°C
Wind Press
QNH
hPa
Press
MSL
hPa
Rain
since 9 am
mm
Dir
 
Spd
km/h
Gust
km/h
Spd
kts
Gust
kts
20/11:30pm 16.7 16.2 13.8 83 1.6 NE 9 13 5 7 1014.0 - 0.0
20/11:00pm 16.6 15.6 13.5 82 1.7 NNE 11 15 6 8 1014.4 - 0.0
20/10:30pm 16.5 15.9 13.4 82 1.7 N 9 13 5 7 1015.0 - 0.0
20/10:00pm 16.5 16.3 13.6 83 1.6 N 7 13 4 7 1015.0 - 0.0
20/09:30pm 16.6 15.9 13.3 81 1.8 N 9 13 5 7 1015.5 - 0.0
20/09:00pm 17.3 16.1 14.0 81 1.9 NNE 13 20 7 11 1015.8 1015.8 0.0
20/08:30pm 18.2 16.5 14.7 80 2.0 NE 17 28 9 15 1015.8 - 0.0
20/08:00pm 18.1 15.6 14.0 77 2.3 NE 20 28 11 15 1015.8 - 0.0
20/07:30pm 18.0 15.7 13.1 73 2.8 ENE 17 24 9 13 1016.3 - 0.0
20/07:00pm 18.0 15.7 12.9 72 2.9 ENE 17 20 9 11 1016.5 - 0.0
20/06:30pm 18.1 15.6 12.3 69 3.2 ENE 17 20 9 11 1016.3 - 0.0
20/06:00pm 18.0 15.3 11.8 67 3.4 E 17 20 9 11 1016.3 1016.3 0.0
20/05:30pm 18.3 15.8 12.3 68 3.3 E 17 20 9 11 1016.4 - 0.0
20/05:00pm 18.3 15.6 11.6 65 3.7 E 17 20 9 11 1016.5 - 0.0
20/04:30pm 19.3 16.2 11.6 61 4.2 E 19 22 10 12 1016.6 - 0.0
20/04:00pm 19.5 16.3 11.3 59 4.5 E 19 24 10 13 1016.7 - 0.0
20/03:30pm 20.0 17.2 12.5 62 4.2 E 19 24 10 13 1016.7 - 0.0
20/03:00pm 20.0 16.8 11.2 57 4.8 ENE 19 24 10 13 1016.8 1016.8 0.0
20/02:30pm 20.8 17.1 10.0 50 5.8 ENE 20 24 11 13 1016.4 - 0.0
20/02:00pm 20.4 16.6 9.0 48 6.0 E 19 24 10 13 1016.9 - 0.0
20/01:30pm 20.5 16.9 9.7 50 5.8 ENE 19 20 10 11 1017.1 - 0.0
20/01:00pm 21.4 17.6 9.9 48 6.2 E 20 24 11 13 1017.3 - 0.0
20/12:30pm 21.8 18.0 9.0 44 6.8 E 19 22 10 12 1017.6 - 0.0
20/12:00pm 21.4 18.5 9.6 47 6.3 E 15 20 8 11 1018.0 1018.0 0.0
20/11:30am 20.3 16.9 7.7 44 6.5 SE 15 20 8 11 1018.4 - 0.0
20/11:00am 20.7 17.8 8.0 44 6.6 SE 13 17 7 9 1018.3 - 0.0
20/10:30am 20.3 16.5 8.9 48 6.0 SSE 19 20 10 11 1018.4 - 0.0
20/10:00am 20.2 17.8 6.9 42 6.7 WNW 9 17 5 9 1018.6 - 0.0
20/09:30am 19.3 16.7 7.7 47 5.9 NNW 11 13 6 7 1018.7 - 0.0
20/09:00am 17.1 15.1 8.8 58 4.3 N 9 11 5 6 1018.8 1018.8 0.0
20/08:30am 14.6 12.6 8.8 68 2.9 NNW 9 11 5 6 1018.7 - 0.0
20/08:00am 12.6 9.7 8.3 75 2.1 NNW 13 15 7 8 1018.5 - 0.0
20/07:30am 11.4 7.8 8.3 81 1.5 WNW 17 20 9 11 1018.3 - 0.0
20/07:00am 10.3 6.6 8.1 86 1.1 WNW 17 20 9 11 1017.9 - 0.0
20/06:30am 9.2 6.1 7.2 87 0.9 NW 13 15 7 8 1017.7 - 0.0
20/06:00am 8.9 6.1 7.0 88 0.9 NW 11 13 6 7 1017.5 1017.5 0.0
20/05:30am 9.5 6.4 7.4 87 1.0 NW 13 17 7 9 1017.7 - 0.0
20/05:00am 9.3 5.9 7.6 89 0.8 WNW 15 17 8 9 1017.4 - 0.0
20/04:30am 9.2 6.5 7.2 87 0.9 NW 11 15 6 8 1017.3 - 0.0
20/04:00am 10.6 7.7 8.2 85 1.2 WNW 13 17 7 9 1017.3 - 0.0
20/03:30am 9.7 5.5 7.5 86 1.0 NNW 19 22 10 12 1017.2 - 0.0
20/03:00am 9.8 5.7 7.7 87 1.0 WNW 19 24 10 13 1017.5 1017.5 0.0
20/02:30am 10.1 6.0 7.7 85 1.2 WNW 19 20 10 11 1017.4 - 0.0
20/02:00am 9.0 4.7 7.1 88 0.9 NNW 19 24 10 13 1017.3 - 0.0
20/01:30am 9.5 5.7 7.6 88 0.9 NW 17 19 9 10 1018.0 - 0.0
20/01:00am 10.2 6.1 8.0 86 1.1 WNW 19 20 10 11 1018.1 - 0.0
20/12:30am 10.2 6.5 8.0 86 1.1 NW 17 19 9 10 1018.0 - 0.0
20/12:00am 9.9 6.6 8.0 88 0.9 NW 15 17 8 9 1018.0 1018.0 0.0
 
Date/Time
CST
Temp
°C
App
Temp
°C
Dew
Point
Rel
Hum
%
Delta-T
°C
Wind Press
QNH
hPa
Press
MSL
hPa
Rain
since 9 am
mm
Dir
 
Spd
km/h
Gust
km/h
Spd
kts
Gust
kts
19/11:30pm 9.8 7.5 7.6 86 1.0 NNW 9 11 5 6 1018.2 - 0.0
19/11:00pm 10.3 7.4 8.1 86 1.1 NW 13 15 7 8 1018.5 - 0.0
19/10:30pm 10.1 7.4 7.3 83 1.3 NW 11 15 6 8 1018.5 - 0.0
19/10:00pm 10.6 7.3 8.2 85 1.2 WNW 15 17 8 9 1018.9 - 0.0
19/09:30pm 10.4 7.4 7.8 84 1.3 WNW 13 15 7 8 1018.8 - 0.0
19/09:00pm 10.8 8.2 7.9 82 1.4 WNW 11 13 6 7 1018.7 1018.7 0.0
19/08:30pm 10.6 8.4 7.7 82 1.4 NNW 9 11 5 6 1018.7 - 0.0
19/08:00pm 11.3 9.2 8.2 81 1.5 NW 9 11 5 6 1018.8 - 0.0
19/07:30pm 12.1 10.6 6.6 69 2.6 E 4 7 2 4 1018.7 - 0.0
19/07:00pm 15.1 13.3 9.5 69 2.9 ENE 9 11 5 6 1018.6 - 0.0
19/06:30pm 16.0 14.3 9.7 66 3.3 E 9 11 5 6 1018.2 - 0.0
19/06:00pm 16.4 14.3 9.6 64 3.5 ENE 11 15 6 8 1018.2 1018.2 0.0
19/05:30pm 17.1 15.0 9.8 62 3.8 E 11 13 6 7 1018.3 - 0.0
19/05:00pm 17.2 14.7 9.6 61 4.0 E 13 15 7 8 1018.2 - 0.0
19/04:30pm 17.5 14.7 9.9 61 4.0 E 15 19 8 10 1018.2 - 0.0
19/04:00pm 17.5 14.6 9.7 60 4.1 E 15 20 8 11 1018.4 - 0.0
19/03:30pm 18.3 15.2 10.2 59 4.3 E 17 22 9 12 1018.5 - 0.0
19/03:00pm 18.0 14.8 10.1 60 4.2 E 17 20 9 11 1018.6 1018.6 0.0
19/02:30pm 17.9 14.3 10.0 60 4.2 ENE 19 24 10 13 1018.7 - 0.0
19/02:00pm 18.2 15.0 10.1 59 4.3 E 17 24 9 13 1018.8 - 0.0
19/01:30pm 17.9 14.7 10.0 60 4.2 ENE 17 20 9 11 1019.4 - 0.0
19/01:00pm 17.7 14.5 9.8 60 4.2 E 17 22 9 12 1019.9 - 0.0
19/12:30pm 18.0 14.3 9.6 58 4.4 ENE 19 24 10 13 1020.3 - 0.0
19/12:00pm 18.6 15.0 9.9 57 4.6 E 19 24 10 13 1020.8 1020.8 0.0
19/11:30am 18.4 15.5 9.5 56 4.7 ENE 15 20 8 11 1021.5 - 0.0
19/11:00am 17.7 14.7 9.3 58 4.4 ENE 15 20 8 11 1021.8 - 0.0
19/10:30am 18.1 15.0 8.9 55 4.8 ENE 15 24 8 13 1021.9 - 0.0
19/10:00am 17.9 15.1 8.5 54 4.8 NNE 13 17 7 9 1022.3 - 0.0
19/09:30am 16.9 15.6 9.1 60 4.0 E 6 9 3 5 1022.7 - 0.0
19/09:00am 15.9 14.5 8.9 63 3.6 N 6 9 3 5 1022.8 1022.8 0.0
19/08:30am 15.2 14.2 8.9 66 3.2 N 4 7 2 4 1022.8 - 0.0
19/08:00am 14.2 13.1 8.6 69 2.8 NNW 4 6 2 3 1022.6 - 0.0
19/07:30am 13.4 12.7 8.5 72 2.4 NNW 2 7 1 4 1022.4 - 0.0
19/07:00am 12.9 12.5 8.2 73 2.3 CALM 0 0 0 0 1022.4 - 0.0
19/06:30am 13.6 12.8 8.2 70 2.7 SW 2 7 1 4 1022.3 - 0.0
19/06:00am 14.3 14.0 8.5 68 2.9 CALM 0 7 0 4 1022.3 1022.3 0.0
19/05:30am 13.7 11.3 8.5 71 2.6 WNW 11 15 6 8 1022.1 - 0.0
19/05:00am 13.3 12.9 8.2 71 2.5 CALM 0 0 0 0 1022.1 - 0.0
19/04:30am 14.7 12.7 8.6 67 3.1 ESE 9 13 5 7 1022.0 - 0.0
19/04:00am 13.4 11.9 8.5 72 2.4 E 6 11 3 6 1022.1 - 0.0
19/03:30am 14.4 12.0 8.6 68 2.9 ESE 11 15 6 8 1022.0 - 0.0
19/03:00am 14.3 11.5 8.5 68 2.9 ESE 13 17 7 9 1022.1 1022.1 0.0
19/02:30am 14.8 11.4 9.2 69 2.9 ESE 17 20 9 11 1022.3 - 0.0
19/02:00am 14.9 11.4 8.8 67 3.1 ESE 17 20 9 11 1022.5 - 0.0
19/01:30am 13.5 10.3 8.6 72 2.5 ESE 15 17 8 9 1022.6 - 0.0
19/01:00am 12.5 9.3 8.6 77 1.9 ESE 15 17 8 9 1022.8 - 0.0
19/12:30am 11.7 9.8 7.4 75 2.1 ESE 7 13 4 7 1023.0 - 0.0
19/12:00am 12.5 9.8 8.8 78 1.8 SE 13 17 7 9 1023.2 1023.2 0.0
 
Date/Time
CST
Temp
°C
App
Temp
°C
Dew
Point
Rel
Hum
%
Delta-T
°C
Wind Press
QNH
hPa
Press
MSL
hPa
Rain
since 9 am
mm
Dir
 
Spd
km/h
Gust
km/h
Spd
kts
Gust
kts
18/11:30pm 9.2 6.9 5.6 78 1.6 E 7 9 4 5 1023.4 - 0.0
18/11:00pm 10.0 8.5 6.9 81 1.5 SSE 4 9 2 5 1023.7 - 0.0
18/10:30pm 9.3 8.4 6.0 80 1.5 CALM 0 6 0 3 1024.0 - 0.0
18/10:00pm 9.7 8.8 6.1 78 1.7 CALM 0 7 0 4 1024.1 - 0.0

Other Formats:

Comma delimited format used in spreadsheet applications
http://www.bom.gov.au/fwo/IDS60801/IDS60801.95661.axf

JavaScript Object Notation format (JSON) in row-major order
http://www.bom.gov.au/fwo/IDS60801/IDS60801.95661.json